sensor_id;sensor_type;location;lat;lon;timestamp;P1;durP1;ratioP1;P2;durP2;ratioP2
17686;SDS011;8962;52.538;13.266;2023-04-03T00:00:11;6.15;;;1.65;;
17686;SDS011;8962;52.538;13.266;2023-04-03T00:02:39;5.28;;;1.73;;
17686;SDS011;8962;52.538;13.266;2023-04-03T00:05:07;7.65;;;1.83;;
17686;SDS011;8962;52.538;13.266;2023-04-03T00:07:36;5.13;;;1.60;;
17686;SDS011;8962;52.538;13.266;2023-04-03T00:10:03;6.78;;;1.65;;
17686;SDS011;8962;52.538;13.266;2023-04-03T00:12:33;4.97;;;1.83;;
17686;SDS011;8962;52.538;13.266;2023-04-03T00:15:00;6.97;;;1.75;;
17686;SDS011;8962;52.538;13.266;2023-04-03T00:17:28;6.63;;;2.05;;
17686;SDS011;8962;52.538;13.266;2023-04-03T00:19:55;6.20;;;2.00;;
17686;SDS011;8962;52.538;13.266;2023-04-03T00:22:22;5.82;;;2.05;;
17686;SDS011;8962;52.538;13.266;2023-04-03T00:24:51;4.97;;;1.80;;
17686;SDS011;8962;52.538;13.266;2023-04-03T00:27:20;6.70;;;2.03;;
17686;SDS011;8962;52.538;13.266;2023-04-03T00:29:49;7.32;;;1.83;;
17686;SDS011;8962;52.538;13.266;2023-04-03T00:32:16;5.32;;;1.90;;
17686;SDS011;8962;52.538;13.266;2023-04-03T00:34:43;5.75;;;1.90;;
17686;SDS011;8962;52.538;13.266;2023-04-03T00:37:12;7.05;;;1.77;;
17686;SDS011;8962;52.538;13.266;2023-04-03T00:39:39;7.05;;;1.58;;
17686;SDS011;8962;52.538;13.266;2023-04-03T00:42:06;4.40;;;1.52;;
17686;SDS011;8962;52.538;13.266;2023-04-03T00:47:54;7.32;;;1.77;;
17686;SDS011;8962;52.538;13.266;2023-04-03T00:50:22;7.47;;;1.88;;
17686;SDS011;8962;52.538;13.266;2023-04-03T00:52:49;4.90;;;1.90;;
17686;SDS011;8962;52.538;13.266;2023-04-03T00:55:18;7.25;;;2.00;;
17686;SDS011;8962;52.538;13.266;2023-04-03T00:57:47;6.68;;;1.75;;
17686;SDS011;8962;52.538;13.266;2023-04-03T01:00:17;7.68;;;2.13;;
17686;SDS011;8962;52.538;13.266;2023-04-03T01:02:47;8.55;;;2.17;;
17686;SDS011;8962;52.538;13.266;2023-04-03T01:05:16;8.55;;;2.00;;
17686;SDS011;8962;52.538;13.266;2023-04-03T01:07:45;7.45;;;2.50;;
17686;SDS011;8962;52.538;13.266;2023-04-03T01:10:14;6.43;;;2.20;;
17686;SDS011;8962;52.538;13.266;2023-04-03T01:12:45;11.60;;;1.95;;
17686;SDS011;8962;52.538;13.266;2023-04-03T01:15:14;8.90;;;1.98;;
17686;SDS011;8962;52.538;13.266;2023-04-03T01:17:43;8.32;;;1.98;;
17686;SDS011;8962;52.538;13.266;2023-04-03T01:23:34;5.88;;;2.08;;
17686;SDS011;8962;52.538;13.266;2023-04-03T01:26:14;7.45;;;2.10;;
17686;SDS011;8962;52.538;13.266;2023-04-03T01:28:42;15.90;;;2.42;;
17686;SDS011;8962;52.538;13.266;2023-04-03T01:31:13;13.02;;;2.17;;
17686;SDS011;8962;52.538;13.266;2023-04-03T01:33:49;6.50;;;2.20;;
17686;SDS011;8962;52.538;13.266;2023-04-03T01:36:18;9.10;;;2.70;;
17686;SDS011;8962;52.538;13.266;2023-04-03T01:38:47;10.75;;;3.08;;
17686;SDS011;8962;52.538;13.266;2023-04-03T01:41:15;14.32;;;3.50;;
17686;SDS011;8962;52.538;13.266;2023-04-03T01:43:44;15.32;;;3.50;;
17686;SDS011;8962;52.538;13.266;2023-04-03T01:46:11;9.55;;;3.47;;
17686;SDS011;8962;52.538;13.266;2023-04-03T01:48:39;15.63;;;3.13;;
17686;SDS011;8962;52.538;13.266;2023-04-03T01:51:08;12.60;;;3.10;;
17686;SDS011;8962;52.538;13.266;2023-04-03T01:53:36;9.48;;;2.80;;
17686;SDS011;8962;52.538;13.266;2023-04-03T01:56:04;14.10;;;2.67;;
17686;SDS011;8962;52.538;13.266;2023-04-03T01:58:33;7.03;;;2.13;;
17686;SDS011;8962;52.538;13.266;2023-04-03T02:01:00;5.00;;;2.00;;
17686;SDS011;8962;52.538;13.266;2023-04-03T02:03:28;5.60;;;2.28;;
17686;SDS011;8962;52.538;13.266;2023-04-03T02:05:56;8.48;;;2.17;;
17686;SDS011;8962;52.538;13.266;2023-04-03T02:08:24;4.75;;;1.67;;
17686;SDS011;8962;52.538;13.266;2023-04-03T02:10:51;9.27;;;2.13;;
17686;SDS011;8962;52.538;13.266;2023-04-03T02:13:18;5.25;;;1.77;;
17686;SDS011;8962;52.538;13.266;2023-04-03T02:15:46;6.75;;;2.20;;
17686;SDS011;8962;52.538;13.266;2023-04-03T02:18:16;8.75;;;2.03;;
17686;SDS011;8962;52.538;13.266;2023-04-03T02:20:43;4.20;;;1.55;;
17686;SDS011;8962;52.538;13.266;2023-04-03T02:23:10;9.63;;;2.38;;
17686;SDS011;8962;52.538;13.266;2023-04-03T02:25:38;9.27;;;1.98;;
17686;SDS011;8962;52.538;13.266;2023-04-03T02:28:06;4.30;;;1.98;;
17686;SDS011;8962;52.538;13.266;2023-04-03T02:30:33;10.40;;;2.20;;
17686;SDS011;8962;52.538;13.266;2023-04-03T02:33:00;7.95;;;1.80;;
17686;SDS011;8962;52.538;13.266;2023-04-03T02:35:28;8.25;;;2.40;;
17686;SDS011;8962;52.538;13.266;2023-04-03T02:37:58;7.15;;;2.00;;
17686;SDS011;8962;52.538;13.266;2023-04-03T02:40:28;7.40;;;1.80;;
17686;SDS011;8962;52.538;13.266;2023-04-03T02:42:56;5.45;;;1.90;;
17686;SDS011;8962;52.538;13.266;2023-04-03T02:45:24;11.43;;;2.30;;
17686;SDS011;8962;52.538;13.266;2023-04-03T02:47:55;9.80;;;2.30;;
17686;SDS011;8962;52.538;13.266;2023-04-03T02:50:22;10.10;;;2.20;;
17686;SDS011;8962;52.538;13.266;2023-04-03T02:52:49;5.82;;;2.03;;
17686;SDS011;8962;52.538;13.266;2023-04-03T02:55:16;7.38;;;2.10;;
17686;SDS011;8962;52.538;13.266;2023-04-03T02:57:46;4.90;;;2.13;;
17686;SDS011;8962;52.538;13.266;2023-04-03T03:00:15;7.05;;;2.05;;
17686;SDS011;8962;52.538;13.266;2023-04-03T03:02:43;8.00;;;1.98;;
17686;SDS011;8962;52.538;13.266;2023-04-03T03:05:10;7.43;;;2.25;;
17686;SDS011;8962;52.538;13.266;2023-04-03T03:07:38;5.93;;;2.05;;
17686;SDS011;8962;52.538;13.266;2023-04-03T03:10:05;5.93;;;2.08;;
17686;SDS011;8962;52.538;13.266;2023-04-03T03:12:33;7.43;;;2.10;;
17686;SDS011;8962;52.538;13.266;2023-04-03T03:15:01;6.68;;;2.08;;
17686;SDS011;8962;52.538;13.266;2023-04-03T03:17:29;4.78;;;1.95;;
17686;SDS011;8962;52.538;13.266;2023-04-03T03:19:56;7.72;;;1.90;;
17686;SDS011;8962;52.538;13.266;2023-04-03T03:22:23;6.63;;;2.15;;
17686;SDS011;8962;52.538;13.266;2023-04-03T03:24:51;6.95;;;1.90;;
17686;SDS011;8962;52.538;13.266;2023-04-03T03:27:19;8.07;;;2.63;;
17686;SDS011;8962;52.538;13.266;2023-04-03T03:29:46;6.55;;;1.88;;
17686;SDS011;8962;52.538;13.266;2023-04-03T03:32:13;3.83;;;1.80;;
17686;SDS011;8962;52.538;13.266;2023-04-03T03:34:42;5.50;;;1.63;;
17686;SDS011;8962;52.538;13.266;2023-04-03T03:37:09;6.22;;;1.80;;
17686;SDS011;8962;52.538;13.266;2023-04-03T03:39:36;5.30;;;1.63;;
17686;SDS011;8962;52.538;13.266;2023-04-03T03:42:03;4.38;;;2.05;;
17686;SDS011;8962;52.538;13.266;2023-04-03T03:44:31;7.72;;;1.98;;
17686;SDS011;8962;52.538;13.266;2023-04-03T03:46:58;5.18;;;2.00;;
17686;SDS011;8962;52.538;13.266;2023-04-03T03:49:27;6.20;;;1.95;;
17686;SDS011;8962;52.538;13.266;2023-04-03T03:51:56;7.82;;;1.80;;
17686;SDS011;8962;52.538;13.266;2023-04-03T03:54:23;6.15;;;1.98;;
17686;SDS011;8962;52.538;13.266;2023-04-03T03:56:50;3.78;;;1.95;;
17686;SDS011;8962;52.538;13.266;2023-04-03T03:59:17;12.77;;;2.10;;
17686;SDS011;8962;52.538;13.266;2023-04-03T04:01:45;5.97;;;1.90;;
17686;SDS011;8962;52.538;13.266;2023-04-03T04:04:12;4.15;;;1.90;;
17686;SDS011;8962;52.538;13.266;2023-04-03T04:06:39;7.85;;;2.20;;
17686;SDS011;8962;52.538;13.266;2023-04-03T04:09:10;5.57;;;1.85;;
17686;SDS011;8962;52.538;13.266;2023-04-03T04:11:37;3.72;;;1.70;;
17686;SDS011;8962;52.538;13.266;2023-04-03T04:14:07;4.72;;;1.85;;
17686;SDS011;8962;52.538;13.266;2023-04-03T04:16:36;7.47;;;2.22;;
17686;SDS011;8962;52.538;13.266;2023-04-03T04:19:08;4.18;;;1.80;;
17686;SDS011;8962;52.538;13.266;2023-04-03T04:21:37;5.85;;;1.85;;
17686;SDS011;8962;52.538;13.266;2023-04-03T04:24:05;6.75;;;2.05;;
17686;SDS011;8962;52.538;13.266;2023-04-03T04:26:35;5.05;;;1.63;;
17686;SDS011;8962;52.538;13.266;2023-04-03T04:29:02;7.55;;;2.17;;
17686;SDS011;8962;52.538;13.266;2023-04-03T04:31:32;8.20;;;2.10;;
17686;SDS011;8962;52.538;13.266;2023-04-03T04:34:00;8.77;;;1.60;;
17686;SDS011;8962;52.538;13.266;2023-04-03T04:36:27;5.30;;;1.75;;
17686;SDS011;8962;52.538;13.266;2023-04-03T04:38:54;8.10;;;1.90;;
17686;SDS011;8962;52.538;13.266;2023-04-03T04:41:25;6.25;;;1.80;;
17686;SDS011;8962;52.538;13.266;2023-04-03T04:43:55;4.95;;;1.45;;
17686;SDS011;8962;52.538;13.266;2023-04-03T04:46:24;7.47;;;1.70;;
17686;SDS011;8962;52.538;13.266;2023-04-03T04:48:56;7.38;;;1.90;;
17686;SDS011;8962;52.538;13.266;2023-04-03T04:51:27;7.53;;;1.90;;
17686;SDS011;8962;52.538;13.266;2023-04-03T04:53:54;6.22;;;1.92;;
17686;SDS011;8962;52.538;13.266;2023-04-03T04:56:23;5.20;;;1.75;;
17686;SDS011;8962;52.538;13.266;2023-04-03T04:58:53;5.32;;;1.88;;
17686;SDS011;8962;52.538;13.266;2023-04-03T05:01:22;7.90;;;2.05;;
17686;SDS011;8962;52.538;13.266;2023-04-03T05:04:04;4.18;;;1.67;;
17686;SDS011;8962;52.538;13.266;2023-04-03T05:06:32;9.55;;;2.00;;
17686;SDS011;8962;52.538;13.266;2023-04-03T05:09:02;6.63;;;2.10;;
17686;SDS011;8962;52.538;13.266;2023-04-03T05:11:31;5.05;;;1.90;;
17686;SDS011;8962;52.538;13.266;2023-04-03T05:13:59;3.20;;;1.70;;
17686;SDS011;8962;52.538;13.266;2023-04-03T05:16:29;9.85;;;2.60;;
17686;SDS011;8962;52.538;13.266;2023-04-03T05:18:57;6.55;;;1.77;;
17686;SDS011;8962;52.538;13.266;2023-04-03T05:21:24;8.27;;;2.05;;
17686;SDS011;8962;52.538;13.266;2023-04-03T05:23:53;5.13;;;2.00;;
17686;SDS011;8962;52.538;13.266;2023-04-03T05:26:20;6.68;;;1.83;;
17686;SDS011;8962;52.538;13.266;2023-04-03T05:28:49;4.35;;;1.80;;
17686;SDS011;8962;52.538;13.266;2023-04-03T05:31:18;6.38;;;1.85;;
17686;SDS011;8962;52.538;13.266;2023-04-03T05:33:48;7.15;;;2.10;;
17686;SDS011;8962;52.538;13.266;2023-04-03T05:36:16;7.75;;;1.70;;
17686;SDS011;8962;52.538;13.266;2023-04-03T05:38:48;8.23;;;2.15;;
17686;SDS011;8962;52.538;13.266;2023-04-03T05:41:16;6.05;;;1.70;;
17686;SDS011;8962;52.538;13.266;2023-04-03T05:43:46;4.28;;;1.60;;
17686;SDS011;8962;52.538;13.266;2023-04-03T05:46:14;5.30;;;1.90;;
17686;SDS011;8962;52.538;13.266;2023-04-03T05:48:48;3.90;;;1.77;;
17686;SDS011;8962;52.538;13.266;2023-04-03T05:51:19;6.65;;;2.03;;
17686;SDS011;8962;52.538;13.266;2023-04-03T05:53:52;6.75;;;1.80;;
17686;SDS011;8962;52.538;13.266;2023-04-03T05:56:26;4.22;;;1.80;;
17686;SDS011;8962;52.538;13.266;2023-04-03T05:58:54;7.93;;;1.90;;
17686;SDS011;8962;52.538;13.266;2023-04-03T06:01:22;4.60;;;2.15;;
17686;SDS011;8962;52.538;13.266;2023-04-03T06:03:51;5.65;;;1.80;;
17686;SDS011;8962;52.538;13.266;2023-04-03T06:06:19;5.30;;;2.00;;
17686;SDS011;8962;52.538;13.266;2023-04-03T06:08:47;6.43;;;2.00;;
17686;SDS011;8962;52.538;13.266;2023-04-03T06:11:14;5.18;;;1.77;;
17686;SDS011;8962;52.538;13.266;2023-04-03T06:13:41;5.65;;;1.77;;
17686;SDS011;8962;52.538;13.266;2023-04-03T06:16:09;5.13;;;1.85;;
17686;SDS011;8962;52.538;13.266;2023-04-03T06:18:40;9.55;;;2.20;;
17686;SDS011;8962;52.538;13.266;2023-04-03T06:21:09;6.32;;;1.60;;
17686;SDS011;8962;52.538;13.266;2023-04-03T06:23:36;5.22;;;2.00;;
17686;SDS011;8962;52.538;13.266;2023-04-03T06:26:04;4.72;;;1.88;;
17686;SDS011;8962;52.538;13.266;2023-04-03T06:28:32;4.75;;;2.00;;
17686;SDS011;8962;52.538;13.266;2023-04-03T06:30:59;6.22;;;1.77;;
17686;SDS011;8962;52.538;13.266;2023-04-03T06:33:26;4.13;;;1.77;;
17686;SDS011;8962;52.538;13.266;2023-04-03T06:35:57;7.07;;;1.77;;
17686;SDS011;8962;52.538;13.266;2023-04-03T06:38:26;10.27;;;2.10;;
17686;SDS011;8962;52.538;13.266;2023-04-03T06:40:53;6.50;;;1.98;;
17686;SDS011;8962;52.538;13.266;2023-04-03T06:43:21;6.68;;;1.80;;
17686;SDS011;8962;52.538;13.266;2023-04-03T06:45:49;3.72;;;1.65;;
17686;SDS011;8962;52.538;13.266;2023-04-03T06:48:17;3.83;;;1.63;;
17686;SDS011;8962;52.538;13.266;2023-04-03T06:50:44;4.35;;;1.80;;
17686;SDS011;8962;52.538;13.266;2023-04-03T06:53:11;3.42;;;1.83;;
17686;SDS011;8962;52.538;13.266;2023-04-03T06:55:40;5.13;;;1.83;;
17686;SDS011;8962;52.538;13.266;2023-04-03T06:58:07;4.88;;;2.00;;
17686;SDS011;8962;52.538;13.266;2023-04-03T07:00:35;5.47;;;2.00;;
17686;SDS011;8962;52.538;13.266;2023-04-03T07:03:02;2.75;;;1.50;;
17686;SDS011;8962;52.538;13.266;2023-04-03T07:05:29;8.43;;;1.85;;
17686;SDS011;8962;52.538;13.266;2023-04-03T07:07:56;5.03;;;1.80;;
17686;SDS011;8962;52.538;13.266;2023-04-03T07:10:24;3.40;;;1.70;;
17686;SDS011;8962;52.538;13.266;2023-04-03T07:12:52;5.85;;;1.33;;
17686;SDS011;8962;52.538;13.266;2023-04-03T07:15:19;6.57;;;1.50;;
17686;SDS011;8962;52.538;13.266;2023-04-03T07:17:47;5.85;;;1.63;;
17686;SDS011;8962;52.538;13.266;2023-04-03T07:20:14;5.50;;;1.55;;
17686;SDS011;8962;52.538;13.266;2023-04-03T07:22:41;4.93;;;1.60;;
17686;SDS011;8962;52.538;13.266;2023-04-03T07:25:08;5.40;;;1.88;;
17686;SDS011;8962;52.538;13.266;2023-04-03T07:27:36;12.82;;;1.92;;
17686;SDS011;8962;52.538;13.266;2023-04-03T07:30:06;3.97;;;1.45;;
17686;SDS011;8962;52.538;13.266;2023-04-03T07:32:34;6.30;;;1.70;;
17686;SDS011;8962;52.538;13.266;2023-04-03T07:35:01;3.40;;;1.30;;
17686;SDS011;8962;52.538;13.266;2023-04-03T07:37:29;5.38;;;1.38;;
17686;SDS011;8962;52.538;13.266;2023-04-03T07:39:57;3.90;;;1.58;;
17686;SDS011;8962;52.538;13.266;2023-04-03T07:42:26;2.50;;;1.42;;
17686;SDS011;8962;52.538;13.266;2023-04-03T07:44:53;2.45;;;1.27;;
17686;SDS011;8962;52.538;13.266;2023-04-03T07:47:23;8.15;;;1.58;;
17686;SDS011;8962;52.538;13.266;2023-04-03T07:49:50;5.03;;;1.90;;
17686;SDS011;8962;52.538;13.266;2023-04-03T07:52:17;5.38;;;1.67;;
17686;SDS011;8962;52.538;13.266;2023-04-03T07:54:45;4.03;;;1.30;;
17686;SDS011;8962;52.538;13.266;2023-04-03T07:57:13;5.85;;;1.52;;
17686;SDS011;8962;52.538;13.266;2023-04-03T07:59:40;3.60;;;1.13;;
17686;SDS011;8962;52.538;13.266;2023-04-03T08:02:08;4.45;;;1.30;;
17686;SDS011;8962;52.538;13.266;2023-04-03T08:04:37;6.18;;;1.52;;
17686;SDS011;8962;52.538;13.266;2023-04-03T08:07:04;4.15;;;1.65;;
17686;SDS011;8962;52.538;13.266;2023-04-03T08:09:32;6.82;;;1.60;;
17686;SDS011;8962;52.538;13.266;2023-04-03T08:11:59;5.97;;;1.55;;
17686;SDS011;8962;52.538;13.266;2023-04-03T08:14:29;2.75;;;1.20;;
17686;SDS011;8962;52.538;13.266;2023-04-03T08:16:59;2.33;;;1.10;;
17686;SDS011;8962;52.538;13.266;2023-04-03T08:19:28;4.03;;;1.38;;
17686;SDS011;8962;52.538;13.266;2023-04-03T08:21:56;5.25;;;1.60;;
17686;SDS011;8962;52.538;13.266;2023-04-03T08:24:25;4.68;;;1.70;;
17686;SDS011;8962;52.538;13.266;2023-04-03T08:26:55;2.85;;;1.33;;
17686;SDS011;8962;52.538;13.266;2023-04-03T08:29:22;5.55;;;1.50;;
17686;SDS011;8962;52.538;13.266;2023-04-03T08:31:49;3.25;;;1.50;;
17686;SDS011;8962;52.538;13.266;2023-04-03T08:34:17;3.38;;;1.20;;
17686;SDS011;8962;52.538;13.266;2023-04-03T08:36:45;3.97;;;1.58;;
17686;SDS011;8962;52.538;13.266;2023-04-03T08:39:13;4.93;;;1.70;;
17686;SDS011;8962;52.538;13.266;2023-04-03T08:41:41;2.88;;;1.40;;
17686;SDS011;8962;52.538;13.266;2023-04-03T08:44:15;5.72;;;1.45;;
17686;SDS011;8962;52.538;13.266;2023-04-03T08:46:52;3.30;;;1.48;;
17686;SDS011;8962;52.538;13.266;2023-04-03T08:49:28;3.75;;;1.23;;
17686;SDS011;8962;52.538;13.266;2023-04-03T08:51:58;3.42;;;1.50;;
17686;SDS011;8962;52.538;13.266;2023-04-03T08:54:31;3.70;;;1.60;;
17686;SDS011;8962;52.538;13.266;2023-04-03T08:57:02;6.30;;;1.50;;
17686;SDS011;8962;52.538;13.266;2023-04-03T08:59:32;3.60;;;1.30;;
17686;SDS011;8962;52.538;13.266;2023-04-03T09:02:02;3.97;;;1.60;;
17686;SDS011;8962;52.538;13.266;2023-04-03T09:04:37;2.60;;;1.27;;
17686;SDS011;8962;52.538;13.266;2023-04-03T09:07:07;3.20;;;1.30;;
17686;SDS011;8962;52.538;13.266;2023-04-03T09:09:47;3.97;;;1.42;;
17686;SDS011;8962;52.538;13.266;2023-04-03T09:12:17;7.10;;;1.58;;
17686;SDS011;8962;52.538;13.266;2023-04-03T09:14:51;3.55;;;1.40;;
17686;SDS011;8962;52.538;13.266;2023-04-03T09:17:26;4.93;;;1.73;;
17686;SDS011;8962;52.538;13.266;2023-04-03T09:20:03;3.85;;;1.30;;
17686;SDS011;8962;52.538;13.266;2023-04-03T09:22:41;2.38;;;1.30;;
17686;SDS011;8962;52.538;13.266;2023-04-03T09:25:12;4.95;;;1.58;;
17686;SDS011;8962;52.538;13.266;2023-04-03T09:27:41;9.45;;;1.58;;
17686;SDS011;8962;52.538;13.266;2023-04-03T09:30:11;3.25;;;1.33;;
17686;SDS011;8962;52.538;13.266;2023-04-03T09:32:41;6.75;;;1.40;;
17686;SDS011;8962;52.538;13.266;2023-04-03T09:35:17;6.85;;;1.27;;
17686;SDS011;8962;52.538;13.266;2023-04-03T09:37:49;2.28;;;1.15;;
17686;SDS011;8962;52.538;13.266;2023-04-03T09:40:30;2.97;;;1.30;;
17686;SDS011;8962;52.538;13.266;2023-04-03T09:43:19;3.58;;;1.30;;
17686;SDS011;8962;52.538;13.266;2023-04-03T09:45:54;2.95;;;1.20;;
17686;SDS011;8962;52.538;13.266;2023-04-03T09:48:23;3.08;;;1.23;;
17686;SDS011;8962;52.538;13.266;2023-04-03T09:50:56;3.03;;;1.17;;
17686;SDS011;8962;52.538;13.266;2023-04-03T09:53:30;14.30;;;3.55;;
17686;SDS011;8962;52.538;13.266;2023-04-03T09:56:05;5.10;;;2.03;;
17686;SDS011;8962;52.538;13.266;2023-04-03T09:58:48;3.95;;;1.48;;
17686;SDS011;8962;52.538;13.266;2023-04-03T10:01:23;4.05;;;1.27;;
17686;SDS011;8962;52.538;13.266;2023-04-03T10:04:07;2.78;;;1.05;;
17686;SDS011;8962;52.538;13.266;2023-04-03T10:06:38;5.20;;;1.50;;
17686;SDS011;8962;52.538;13.266;2023-04-03T10:09:15;2.47;;;1.10;;
17686;SDS011;8962;52.538;13.266;2023-04-03T10:12:01;5.88;;;1.60;;
17686;SDS011;8962;52.538;13.266;2023-04-03T10:14:30;3.97;;;1.30;;
17686;SDS011;8962;52.538;13.266;2023-04-03T10:17:03;3.83;;;1.15;;
17686;SDS011;8962;52.538;13.266;2023-04-03T10:19:45;3.38;;;1.13;;
17686;SDS011;8962;52.538;13.266;2023-04-03T10:22:18;2.70;;;1.40;;
17686;SDS011;8962;52.538;13.266;2023-04-03T10:24:58;3.60;;;1.20;;
17686;SDS011;8962;52.538;13.266;2023-04-03T10:27:35;3.88;;;1.60;;
17686;SDS011;8962;52.538;13.266;2023-04-03T10:30:18;4.10;;;1.45;;
17686;SDS011;8962;52.538;13.266;2023-04-03T10:32:52;4.00;;;1.10;;
17686;SDS011;8962;52.538;13.266;2023-04-03T10:35:33;4.40;;;1.30;;
17686;SDS011;8962;52.538;13.266;2023-04-03T10:38:15;3.13;;;1.20;;
17686;SDS011;8962;52.538;13.266;2023-04-03T10:40:47;4.78;;;1.48;;
17686;SDS011;8962;52.538;13.266;2023-04-03T10:43:27;3.20;;;1.50;;
17686;SDS011;8962;52.538;13.266;2023-04-03T10:46:01;3.65;;;1.30;;
17686;SDS011;8962;52.538;13.266;2023-04-03T10:48:40;3.15;;;1.33;;
17686;SDS011;8962;52.538;13.266;2023-04-03T10:51:22;1.88;;;1.20;;
17686;SDS011;8962;52.538;13.266;2023-04-03T10:53:55;1.98;;;1.10;;
17686;SDS011;8962;52.538;13.266;2023-04-03T10:56:30;4.70;;;1.20;;
17686;SDS011;8962;52.538;13.266;2023-04-03T10:59:05;4.28;;;1.20;;
17686;SDS011;8962;52.538;13.266;2023-04-03T11:01:43;2.85;;;1.30;;
17686;SDS011;8962;52.538;13.266;2023-04-03T11:04:12;3.40;;;1.27;;
17686;SDS011;8962;52.538;13.266;2023-04-03T11:06:43;4.68;;;1.33;;
17686;SDS011;8962;52.538;13.266;2023-04-03T11:09:17;3.63;;;1.30;;
17686;SDS011;8962;52.538;13.266;2023-04-03T11:11:51;6.63;;;1.40;;
17686;SDS011;8962;52.538;13.266;2023-04-03T11:14:25;3.22;;;1.50;;
17686;SDS011;8962;52.538;13.266;2023-04-03T11:17:11;3.45;;;1.52;;
17686;SDS011;8962;52.538;13.266;2023-04-03T11:19:49;2.30;;;1.35;;
17686;SDS011;8962;52.538;13.266;2023-04-03T11:22:23;4.28;;;1.40;;
17686;SDS011;8962;52.538;13.266;2023-04-03T11:24:56;3.55;;;1.20;;
17686;SDS011;8962;52.538;13.266;2023-04-03T11:27:30;4.05;;;1.23;;
17686;SDS011;8962;52.538;13.266;2023-04-03T11:30:08;2.58;;;1.50;;
17686;SDS011;8962;52.538;13.266;2023-04-03T11:32:51;3.05;;;1.23;;
17686;SDS011;8962;52.538;13.266;2023-04-03T11:35:37;5.70;;;1.48;;
17686;SDS011;8962;52.538;13.266;2023-04-03T11:38:14;2.80;;;1.33;;
17686;SDS011;8962;52.538;13.266;2023-04-03T11:40:50;2.75;;;1.10;;
17686;SDS011;8962;52.538;13.266;2023-04-03T11:43:21;4.00;;;1.70;;
17686;SDS011;8962;52.538;13.266;2023-04-03T11:45:55;3.38;;;1.55;;
17686;SDS011;8962;52.538;13.266;2023-04-03T11:48:44;4.78;;;1.50;;
17686;SDS011;8962;52.538;13.266;2023-04-03T12:12:59;1.92;;;1.10;;
17686;SDS011;8962;52.538;13.266;2023-04-03T12:21:22;2.38;;;1.17;;
17686;SDS011;8962;52.538;13.266;2023-04-03T12:24:24;3.85;;;1.27;;
17686;SDS011;8962;52.538;13.266;2023-04-03T12:27:01;2.83;;;1.25;;
17686;SDS011;8962;52.538;13.266;2023-04-03T12:29:38;3.90;;;1.20;;
17686;SDS011;8962;52.538;13.266;2023-04-03T12:32:15;3.75;;;1.67;;
17686;SDS011;8962;52.538;13.266;2023-04-03T12:35:00;3.00;;;1.20;;
17686;SDS011;8962;52.538;13.266;2023-04-03T12:37:48;2.00;;;1.20;;
17686;SDS011;8962;52.538;13.266;2023-04-03T12:40:46;2.15;;;1.30;;
17686;SDS011;8962;52.538;13.266;2023-04-03T12:43:20;2.80;;;1.08;;
17686;SDS011;8962;52.538;13.266;2023-04-03T12:46:18;3.08;;;1.50;;
17686;SDS011;8962;52.538;13.266;2023-04-03T12:48:47;3.47;;;1.20;;
17686;SDS011;8962;52.538;13.266;2023-04-03T12:51:18;3.55;;;1.10;;
17686;SDS011;8962;52.538;13.266;2023-04-03T12:53:49;2.13;;;1.20;;
17686;SDS011;8962;52.538;13.266;2023-04-03T12:56:20;3.58;;;1.23;;
17686;SDS011;8962;52.538;13.266;2023-04-03T12:58:49;1.65;;;1.00;;
17686;SDS011;8962;52.538;13.266;2023-04-03T13:01:20;2.72;;;1.20;;
17686;SDS011;8962;52.538;13.266;2023-04-03T13:03:52;1.50;;;1.08;;
17686;SDS011;8962;52.538;13.266;2023-04-03T13:06:22;1.95;;;1.25;;
17686;SDS011;8962;52.538;13.266;2023-04-03T13:08:54;3.65;;;1.30;;
17686;SDS011;8962;52.538;13.266;2023-04-03T13:11:23;2.85;;;1.17;;
17686;SDS011;8962;52.538;13.266;2023-04-03T13:13:56;2.33;;;1.23;;
17686;SDS011;8962;52.538;13.266;2023-04-03T13:16:26;4.10;;;1.40;;
17686;SDS011;8962;52.538;13.266;2023-04-03T13:18:57;3.70;;;1.40;;
17686;SDS011;8962;52.538;13.266;2023-04-03T13:21:25;2.65;;;1.40;;
17686;SDS011;8962;52.538;13.266;2023-04-03T13:23:55;5.32;;;1.35;;
17686;SDS011;8962;52.538;13.266;2023-04-03T13:26:25;1.85;;;1.10;;
17686;SDS011;8962;52.538;13.266;2023-04-03T13:28:54;3.35;;;1.33;;
17686;SDS011;8962;52.538;13.266;2023-04-03T13:31:26;3.55;;;1.20;;
17686;SDS011;8962;52.538;13.266;2023-04-03T13:33:57;4.50;;;1.60;;
17686;SDS011;8962;52.538;13.266;2023-04-03T13:36:30;2.47;;;1.38;;
17686;SDS011;8962;52.538;13.266;2023-04-03T13:39:04;2.05;;;1.10;;
17686;SDS011;8962;52.538;13.266;2023-04-03T13:41:34;2.70;;;1.38;;
17686;SDS011;8962;52.538;13.266;2023-04-03T13:44:16;3.78;;;1.50;;
17686;SDS011;8962;52.538;13.266;2023-04-03T13:46:54;2.60;;;1.30;;
17686;SDS011;8962;52.538;13.266;2023-04-03T13:49:26;1.77;;;1.23;;
17686;SDS011;8962;52.538;13.266;2023-04-03T13:51:57;1.65;;;1.00;;
17686;SDS011;8962;52.538;13.266;2023-04-03T13:54:29;2.72;;;1.20;;
17686;SDS011;8962;52.538;13.266;2023-04-03T13:56:58;2.03;;;1.25;;
17686;SDS011;8962;52.538;13.266;2023-04-03T13:59:28;2.13;;;1.10;;
17686;SDS011;8962;52.538;13.266;2023-04-03T14:02:10;2.63;;;1.30;;
17686;SDS011;8962;52.538;13.266;2023-04-03T14:04:46;4.35;;;1.70;;
17686;SDS011;8962;52.538;13.266;2023-04-03T14:07:17;6.68;;;2.22;;
17686;SDS011;8962;52.538;13.266;2023-04-03T14:09:46;4.10;;;1.40;;
17686;SDS011;8962;52.538;13.266;2023-04-03T14:12:14;6.05;;;1.85;;
17686;SDS011;8962;52.538;13.266;2023-04-03T14:14:44;2.03;;;1.13;;
17686;SDS011;8962;52.538;13.266;2023-04-03T14:17:15;4.57;;;1.60;;
17686;SDS011;8962;52.538;13.266;2023-04-03T14:19:45;3.60;;;1.60;;
17686;SDS011;8962;52.538;13.266;2023-04-03T14:22:17;5.65;;;1.60;;
17686;SDS011;8962;52.538;13.266;2023-04-03T14:24:47;1.63;;;1.20;;
17686;SDS011;8962;52.538;13.266;2023-04-03T14:27:18;3.85;;;1.30;;
17686;SDS011;8962;52.538;13.266;2023-04-03T14:29:47;3.92;;;1.23;;
17686;SDS011;8962;52.538;13.266;2023-04-03T14:32:17;2.25;;;1.20;;
17686;SDS011;8962;52.538;13.266;2023-04-03T14:34:46;3.13;;;1.70;;
17686;SDS011;8962;52.538;13.266;2023-04-03T14:37:18;2.38;;;1.40;;
17686;SDS011;8962;52.538;13.266;2023-04-03T14:39:48;4.38;;;1.50;;
17686;SDS011;8962;52.538;13.266;2023-04-03T14:42:18;2.13;;;1.60;;
17686;SDS011;8962;52.538;13.266;2023-04-03T14:44:49;5.25;;;1.40;;
17686;SDS011;8962;52.538;13.266;2023-04-03T14:47:19;2.40;;;1.30;;
17686;SDS011;8962;52.538;13.266;2023-04-03T14:49:48;4.53;;;1.60;;
17686;SDS011;8962;52.538;13.266;2023-04-03T14:52:19;2.20;;;1.58;;
17686;SDS011;8962;52.538;13.266;2023-04-03T14:54:49;3.10;;;1.40;;
17686;SDS011;8962;52.538;13.266;2023-04-03T14:57:21;2.13;;;1.30;;
17686;SDS011;8962;52.538;13.266;2023-04-03T14:59:52;2.55;;;1.50;;
17686;SDS011;8962;52.538;13.266;2023-04-03T15:02:28;3.63;;;1.50;;
17686;SDS011;8962;52.538;13.266;2023-04-03T15:04:57;2.75;;;1.20;;
17686;SDS011;8962;52.538;13.266;2023-04-03T15:07:26;3.97;;;1.75;;
17686;SDS011;8962;52.538;13.266;2023-04-03T15:09:55;6.15;;;1.60;;
17686;SDS011;8962;52.538;13.266;2023-04-03T15:12:26;6.13;;;1.70;;
17686;SDS011;8962;52.538;13.266;2023-04-03T15:14:53;2.67;;;1.42;;
17686;SDS011;8962;52.538;13.266;2023-04-03T15:17:21;5.28;;;1.50;;
17686;SDS011;8962;52.538;13.266;2023-04-03T15:19:50;3.67;;;1.30;;
17686;SDS011;8962;52.538;13.266;2023-04-03T15:22:18;3.30;;;1.40;;
17686;SDS011;8962;52.538;13.266;2023-04-03T15:24:46;2.42;;;1.58;;
17686;SDS011;8962;52.538;13.266;2023-04-03T15:27:13;5.30;;;1.50;;
17686;SDS011;8962;52.538;13.266;2023-04-03T15:29:42;2.05;;;1.30;;
17686;SDS011;8962;52.538;13.266;2023-04-03T15:32:10;2.17;;;1.27;;
17686;SDS011;8962;52.538;13.266;2023-04-03T15:34:39;5.57;;;1.55;;
17686;SDS011;8962;52.538;13.266;2023-04-03T15:37:07;4.03;;;1.50;;
17686;SDS011;8962;52.538;13.266;2023-04-03T15:39:36;3.17;;;1.42;;
17686;SDS011;8962;52.538;13.266;2023-04-03T15:42:06;3.38;;;1.58;;